Airfield :
LOGIN :

Register | Disclaimer

   EN    FR    IT 

 










Legend :    VFR   Marginal VFR   IFR   Intensive IFR   Very Intensive IFR
Visi :
Ceiling :
>= 8 km
>= 3000ft
5 to 8 km
1000 to 3000 ft
1500m to 5 km
500 to 1000 ft
800 to 1500m
200 to 500 ft
< 800m
< 200 ft
Symbols :   Thunderstorms  Fog  Heavy snow  Heavy precipitations  Wind > 20 kt
SIGMETs :     Misc.  Thunderstorms  Icing  Turbulence  Mountain Waves  Volcanic Ashes







- Airport Elevation : 587 ft
- IATA code : XCR
- Download approach charts


LFOK - Chalons Vatry

CURRENT METAR :
  • 191100Z AUTO 16005KT CAVOK 01/M01 Q1020 NOSIG

EXPIRED METARs :
  • 191030Z AUTO 16005KT 9000 NSC 00/M00 Q1019 NOSIG
  • 191000Z AUTO 15005KT 9000 NSC M00/M01 Q1020 NOSIG
  • 190930Z AUTO 15005KT 7000 NSC M01/M01 Q1020 NOSIG
  • 190900Z AUTO 13006KT 5000 BR FEW002 OVC140 M01/M01 Q1020 TEMPO 0300 FZFG VV///
  • 190830Z AUTO 14006KT 2400 BR VV/// M02/M02 Q1020 TEMPO 0300 FZFG

TAF AMD TAF LFOK
Valid from the 19 at 09:00 until the 20 at 06:00 UTC


190918Z 1909/2006 15005KT 2000 BR SCT005
BECMG 1909/1911 8000 NSW
BECMG 1915/1918 3000 BR OVC005
PROB40
TEMPO 1918/2003 1200 SNRA BR OVC002
No reported NOTAMs for that airfield.
1 SIGMET reported for the Paris FIR (LFFF) :
 
Severe icing
LFFF SIGMET 1 VALID 190845/191200 LFPW
LFFF PARIS FIR/UIR SEV ICE OBS NW OF LINE N5045 E00315 - N4730 W00015 FL150/220 STNR NC=



MET'MAP, your aeronautical weather chart ! - Copyright ORBIFLY December 2007 - Disclaimer

ORBIFLY MET'MAP TEAM :

Programming & Development : Alexandra Zaïnal
Concept & Development : Baudouin d'Aumeries
Co-Development & Prog : Marc-Olivier Méhu
Technical & hardware support : Manuel Goepfert

Contact : metmap@orbifly.com




SOURCES & CREDITS :

   NOAA